Tiempo atmosférico en la estación meteorológica de Campos, Salines Llevant, Illes Balears (3 m.)



Fecha
DESCASC
Temp. máxima en grados centígrados (hora)
DESCASC
Temp. mínima en grados centígrados (hora)
DESCASC
Temp. media en grados centígrados
DESCASC
Racha de viento máxima en m/sg (hora)
DESCASC
Velocidad máxima media en intervalos de 10 minutos(hora)
DESCASC
Precipitaciones diarias en mm
DESCASC
Precipitaciones de 00:00 a 06:00 en mm
DESCASC
Precipitaciones de 06:00 a 12:00 en mm
DESCASC
Precipitaciones de 12:00 a 18:00 en mm
DESCASC
Precipitaciones de 18:00 a 24:00 en mm
DESCASC
18-08-2019 32.5 (15:40) 21.6 (05:40) 27.1 10.28 (19:40) 6.94 (17:30) 0 0 0 0 0
17-08-2019 31.6 (14:40) 19 (07:10) 25.3 9.17 (12:30) 5.83 (15:00) 0 0 0 0 0
16-08-2019 30.1 (17:30) 19.5 (07:20) 24.8 8.61 (14:50) 5.28 (15:40) 0 0 0 0 0
15-08-2019 29.9 (12:50) 17.8 (00:00) 23.8 8.89 (12:40) 5.56 (13:50) 0 0 0 0 0
14-08-2019 28.6 (16:20) 16.7 (00:00) 22.7 11.11 (15:40) 6.39 (15:10) 0 0 0 0 0
13-08-2019 30.2 (16:00) 21.1 (00:00) 25.7 10.56 (09:40) 7.22 (17:30) 0 0 0 0 0
12-08-2019 30.9 (13:30) 24.6 (00:00) 27.8 10.83 (17:20) 7.5 (15:30) 0 0 0 0 0
11-08-2019 30.6 (12:20) 23.6 (00:00) 27.1 7.78 (13:30) 5.56 (15:10) 0 0 0 0 0
10-08-2019 34.4 (17:10) 21.9 (00:00) 28.2 9.72 (14:40) 6.94 (14:50) 0 0 0 0 0
09-08-2019 31 (14:40) 20.8 (00:00) 25.9 8.06 (16:50) 5.28 (16:50) 0 0 0 0 0
08-08-2019 30.9 (12:50) 23.3 (00:00) 27.1 8.33 (14:00) 5.56 (12:30) 0 0 0 0 0
07-08-2019 30.5 (15:10) 22.1 (00:00) 26.3 7.78 (16:20) 4.72 (14:50) 0 0 0 0 0
06-08-2019 30.5 (11:10) 22.4 (00:00) 26.4 9.17 (16:20) 6.39 (15:40) 0 0 0 0 0
05-08-2019 32.5 (13:20) 20.6 (00:00) 26.6 8.61 (14:10) 5.56 (16:30) 0 0 0 0 0
04-08-2019 33.2 (15:10) 19.6 (00:00) 26.4 9.72 (12:40) 5.83 (13:00) 0 0 0 0 0
03-08-2019 33.4 (15:00) 19.6 (00:00) 26.5 10.28 (13:00) 7.22 (15:30) 0 0 0 0 0
02-08-2019 33.6 (17:10) 23.7 (00:00) 28.6 10.83 (15:30) 7.22 (18:00) 0 0 0 0 0
01-08-2019 34.2 (15:40) 23.2 (00:00) 28.7 11.67 (11:00) 7.22 (10:50) 0 0 0 0 0
31-07-2019 29.9 (16:30) 21.9 (00:00) 25.9 12.78 (15:40) 7.78 (13:50) 0 0 0 0 0
30-07-2019 32.7 (15:30) 18.2 (00:00) 25.5 9.17 (15:50) 6.11 (13:20) 0 0 0 0 0
29-07-2019 29 (16:10) 16.5 (00:00) 22.8 9.17 (15:20) 5.28 (15:00) 0 0 0 0 0
28-07-2019 28.8 (17:10) 20.9 (00:00) 24.8 10 (17:30) 8.06 (17:40) 0 0 0 0 0
27-07-2019 29.8 (16:20) 20.8 (00:00) 25.3 12.22 (18:40) 9.17 (16:20) 0 0 0 0 0
26-07-2019 31.2 (13:10) 20.5 (00:00) 25.9 8.61 (11:40) 5.56 (14:00) 0 0 0 0 0
25-07-2019 34.7 (14:10) 21.1 (00:00) 27.9 11.11 (19:40) 6.94 (18:00) 0 0 0 0 0
24-07-2019 34.8 (13:10) 20.6 (00:00) 27.7 9.72 (15:00) 6.39 (15:40) 0 0 0 0 0
23-07-2019 34.8 (15:10) 21.3 (00:00) 28 9.17 (14:10) 6.39 (16:40) 0 0 0 0 0
22-07-2019 34 (14:50) 21.4 (00:00) 27.7 10 (14:00) 6.67 (15:00) 0 0 0 0 0
21-07-2019 32 (14:00) 21.6 (00:00) 26.8 11.39 (14:50) 7.78 (15:20) 0 0 0 0 0

Gráficas

Temp. máximas Temp. mínimas Temp. medias Precipitaciones Rachas de viento máximas Velocidades máximas media en intervalos de 10 minutos

Datos horarios

Fecha y hora oficial Temperatura (ºC) Velocidad del viento (km/h) Dirección del viento Racha (km/h) Dirección de racha Precipitación (mm) Presión (hPa) Tendencia (hPa) Humedad (%)
2019-08-19 23:00:00 26.1 2 Este 14 Este 0 -- -- 85
2019-08-19 22:00:00 26.8 7 Este 20 Este 0 -- -- 83
2019-08-19 21:00:00 27.3 14 Este 23 Este 0 -- -- 82
2019-08-19 20:00:00 27.9 18 Este 27 Sudeste 0 -- -- 78
2019-08-19 19:00:00 29.4 17 Sudeste 27 Sudeste 0 -- -- 73
2019-08-19 18:00:00 30.2 16 Sudeste 30 Sudeste 0 -- -- 70
2019-08-19 17:00:00 30.3 21 Sudeste 32 Sudeste 0 -- -- 69
2019-08-19 16:00:00 30.7 21 Sudeste 31 Sudeste 0 -- -- 67
2019-08-19 15:00:00 31.1 19 Sudeste 29 Sudeste 0 -- -- 66
2019-08-19 14:00:00 31 14 Sudeste 29 Sudeste 0 -- -- 67
2019-08-19 13:00:00 30.5 14 Sudeste 27 Sudeste 0 -- -- 69
2019-08-19 12:00:00 30 16 Sudeste 31 Este 0 -- -- 70
2019-08-19 11:00:00 29.7 15 Sudeste 26 Este 0 -- -- 71
2019-08-19 10:00:00 28.5 13 Sudeste 22 Este 0 -- -- 77
2019-08-19 09:00:00 25.8 5 Nordeste 10 Este 0 -- -- 91
2019-08-19 08:00:00 22.1 0 Calma 5 Norte 0 -- -- 94
2019-08-19 07:00:00 22.1 0 Calma 13 Nordeste 0 -- -- 95
2019-08-19 06:00:00 23 10 Nordeste 18 Nordeste 0 -- -- 95
2019-08-19 05:00:00 23.1 11 Nordeste 17 Nordeste 0 -- -- 94
2019-08-19 04:00:00 23.4 9 Nordeste 14 Nordeste 0 -- -- 94
2019-08-19 03:00:00 21.3 4 Norte 6 Norte 0 -- -- 91
2019-08-19 02:00:00 22 2 Norte 4 Sudeste 0 -- -- 91
2019-08-19 01:00:00 23.9 2 Norte 5 Este 0 -- -- 90
2019-08-19 00:00:00 25.4 3 Nordeste 11 Sudeste 0 -- -- 90
2019-08-18 23:00:00 26 2 Sudeste 10 Sudeste 0 -- -- 88
2019-08-18 22:00:00 26.4 8 Sudeste 21 Este 0 -- -- 86
2019-08-18 21:00:00 27.1 13 Este 31 Sudeste 0 -- -- 84
2019-08-18 20:00:00 28.8 21 Sudeste 37 Sudeste 0 -- -- 74
2019-08-18 19:00:00 29.9 23 Sudeste 32 Sudeste 0 -- -- 67
2019-08-18 18:00:00 30.8 25 Sudeste 35 Este 0 -- -- 62
2019-08-18 17:00:00 31.8 24 Sudeste 33 Sudeste 0 -- -- 59
2019-08-18 16:00:00 32.1 21 Sudeste 30 Sudeste 0 -- -- 58
2019-08-18 15:00:00 32.4 20 Este 30 Sudeste 0 -- -- 52
2019-08-18 14:00:00 32 20 Sudeste 35 Sudeste 0 -- -- 51
2019-08-18 13:00:00 31.9 18 Sudeste 29 Sudeste 0 -- -- 52
2019-08-18 12:00:00 31.5 20 Sudeste 29 Este 0 -- -- 48
2019-08-18 11:00:00 30.6 16 Este 25 Sudeste 0 -- -- 57
2019-08-18 10:00:00 28.9 16 Este 24 Sudeste 0 -- -- 67
2019-08-18 09:00:00 25.5 7 Norte 17 Nordeste 0 -- -- 88
2019-08-18 08:00:00 23.3 10 Nordeste 16 Nordeste 0 -- -- 94
2019-08-18 07:00:00 22.7 9 Nordeste 14 Nordeste 0 -- -- 94
2019-08-18 06:00:00 22.3 5 Nordeste 8 Nordeste 0 -- -- 93
2019-08-18 05:00:00 22.2 0 Calma 5 Nordeste 0 -- -- 90
2019-08-18 04:00:00 23.2 2 Norte 8 Norte 0 -- -- 91
2019-08-18 03:00:00 23.8 4 Norte 8 Norte 0 -- -- 89
2019-08-18 02:00:00 24.9 0 Calma 6 Este 0 -- -- 89
2019-08-18 01:00:00 25.3 4 Sudeste 13 Este 0 -- -- 89
2019-08-18 00:00:00 25.8 8 Sudeste 17 Este 0 -- -- 88
2019-08-17 23:00:00 26.1 11 Sudeste 19 Este 0 -- -- 87
2019-08-17 22:00:00 26.3 13 Sudeste 23 Sudeste 0 -- -- 86
2019-08-17 21:00:00 26.7 15 Sudeste 26 Este 0 -- -- 84
2019-08-17 20:00:00 28 18 Sudeste 26 Sudeste 0 -- -- 76
2019-08-17 19:00:00 29.2 19 Sudeste 28 Sudeste 0 -- -- 70
2019-08-17 18:00:00 30.2 19 Sudeste 28 Sudeste 0 -- -- 65
2019-08-17 17:00:00 31.3 18 Sudeste 30 Sur 0 -- -- 55
2019-08-17 16:00:00 31.4 18 Sudeste 31 Sudeste 0 -- -- 56
2019-08-17 15:00:00 31.2 21 Sudeste 30 Sur 0 -- -- 52
2019-08-17 14:00:00 30.7 20 Sudeste 31 Sudeste 0 -- -- 60
2019-08-17 13:00:00 30.4 18 Sudeste 33 Sudeste 0 -- -- 60
2019-08-17 12:00:00 30.1 16 Sudeste 30 Sudeste 0 -- -- 57
2019-08-17 11:00:00 29.5 17 Este 25 Sudeste 0 -- -- 61
2019-08-17 10:00:00 28.3 15 Este 22 Este 0 -- -- 67
2019-08-17 09:00:00 25 3 Norte 6 Norte 0 -- -- 82
2019-08-17 08:00:00 20.9 3 Norte 5 Noroeste 0 -- -- 89
2019-08-17 07:00:00 19.1 0 Calma -- -- 0 -- -- 91
2019-08-17 06:00:00 19.3 0 Calma -- -- 0 -- -- 89
2019-08-17 05:00:00 19.8 0 Calma -- -- 0 -- -- 89
2019-08-17 04:00:00 20.1 0 Calma -- -- 0 -- -- 88
2019-08-17 03:00:00 20.7 0 Calma -- -- 0 -- -- 84
2019-08-17 02:00:00 21.3 0 Calma 3 Norte 0 -- -- 86
2019-08-17 01:00:00 21.4 0 Calma 5 Sudeste 0 -- -- 84
2019-08-17 00:00:00 22.3 3 Sudeste 4 Sudeste 0 -- -- 82
2019-08-16 23:00:00 23.4 0 Calma 4 Sudeste 0 -- -- 79
2019-08-16 22:00:00 25.1 3 Sudeste 11 Sur 0 -- -- 77
2019-08-16 21:00:00 26.2 9 Sudeste 17 Sudeste 0 -- -- 76
2019-08-16 20:00:00 27.8 13 Sur 21 Sur 0 -- -- 69
2019-08-16 19:00:00 28.7 15 Sur 23 Sur 0 -- -- 63
2019-08-16 18:00:00 29.7 14 Sur 25 Sur 0 -- -- 58
2019-08-16 17:00:00 30 14 Sur 28 Sudeste 0 -- -- 53
2019-08-16 16:00:00 29.8 16 Sudeste 30 Sudeste 0 -- -- 59
2019-08-16 15:00:00 29.6 18 Sudeste 31 Sudeste 0 -- -- 60
2019-08-16 14:00:00 29.6 18 Sudeste 30 Sudeste 0 -- -- 60
2019-08-16 13:00:00 29.4 16 Sudeste 28 Este 0 -- -- 58
2019-08-16 12:00:00 28.7 15 Sudeste 30 Sudeste 0 -- -- 61
2019-08-16 11:00:00 28.5 16 Sudeste 27 Sudeste 0 -- -- 62
2019-08-16 10:00:00 27.7 15 Sudeste 22 Este 0 -- -- 68
2019-08-16 09:00:00 25.8 11 Este 21 Sudeste 0 -- -- 75
2019-08-16 08:00:00 21.2 0 Calma 3 Norte 0 -- -- 88
2019-08-16 07:00:00 19.7 2 Nordeste 8 Nordeste 0 -- -- 85
2019-08-16 06:00:00 21.5 7 Nordeste 12 Nordeste 0 -- -- 87
2019-08-16 05:00:00 21 5 Nordeste 9 Nordeste 0 -- -- 89
2019-08-16 04:00:00 21.2 5 Nordeste 8 Nordeste 0 -- -- 88
2019-08-16 03:00:00 22 5 Nordeste 8 Nordeste 0 -- -- 87
2019-08-16 02:00:00 21.9 3 Nordeste 8 Nordeste 0 -- -- 82
2019-08-16 01:00:00 21.9 0 Calma 3 Sudeste 0 -- -- 83
2019-08-16 00:00:00 22.2 0 Calma 4 Sudeste 0 -- -- 82
2019-08-15 23:00:00 23.6 0 Calma 5 Este 0 -- -- 77
2019-08-15 22:00:00 25.1 4 Sudeste 11 Sur 0 -- -- 77
2019-08-15 21:00:00 26.4 8 Sudeste 16 Sudeste 0 -- -- 73
2019-08-15 20:00:00 28 10 Sur 19 Sur 0 -- -- 62
2019-08-15 19:00:00 28.4 12 Sur 20 Sur 0 -- -- 64
2019-08-15 18:00:00 28.7 15 Sur 28 Sudeste 0 -- -- 60
2019-08-15 17:00:00 28.4 19 Sur 28 Sur 0 -- -- 66
2019-08-15 16:00:00 28.9 19 Sur 28 Sur 0 -- -- 65
2019-08-15 15:00:00 29.4 17 Sur 28 Sudoeste 0 -- -- 61
2019-08-15 14:00:00 28.9 18 Sudoeste 29 Sudoeste 0 -- -- 65
2019-08-15 13:00:00 29.9 16 Sur 32 Sur 0 -- -- 63
2019-08-15 12:00:00 29 18 Sur 25 Sudoeste 0 -- -- 64
2019-08-15 11:00:00 28 12 Oeste 18 Sudoeste 0 -- -- 69
2019-08-15 10:00:00 26.3 5 Noroeste 7 Noroeste 0 -- -- 75
2019-08-15 09:00:00 22.9 3 Noroeste 5 Noroeste 0 -- -- 81
2019-08-15 08:00:00 19.9 0 Calma -- -- 0 -- -- 86
2019-08-15 07:00:00 17.9 0 Calma 3 Noroeste 0 -- -- 88
2019-08-15 06:00:00 18.1 0 Calma 2 Nordeste 0 -- -- 87
2019-08-15 05:00:00 18.4 0 Calma -- -- 0 -- -- 87
2019-08-15 04:00:00 19.1 0 Calma 4 Norte 0 -- -- 86
2019-08-15 03:00:00 19.8 0 Calma 4 Sudeste 0 -- -- 84
2019-08-15 02:00:00 20.6 2 Sur 4 Sur 0 -- -- 82
2019-08-15 01:00:00 21.4 0 Calma 6 Sudeste 0 -- -- 83
2019-08-15 00:00:00 22.2 4 Sudeste 6 Sudeste 0 -- -- 79
2019-08-14 23:00:00 24.1 2 Este 10 Oeste 0 -- -- 75
2019-08-14 22:00:00 25.7 9 Oeste 18 Sudoeste 0 -- -- 73
2019-08-14 21:00:00 26.1 14 Oeste 27 Oeste 0 -- -- 72
2019-08-14 20:00:00 27.2 18 Oeste 30 Oeste 0 -- -- 67
2019-08-14 19:00:00 27.7 21 Oeste 33 Sudoeste 0 -- -- 66
2019-08-14 18:00:00 27.7 18 Sudoeste 33 Oeste 0 -- -- 67
2019-08-14 17:00:00 28 21 Sudoeste 36 Sudoeste 0 -- -- 66
2019-08-14 16:00:00 28.2 20 Sudoeste 40 Sudoeste 0 -- -- 63
2019-08-14 15:00:00 28.3 18 Sudoeste 33 Sudoeste 0 -- -- 63
2019-08-14 14:00:00 28.3 16 Sudoeste 31 Oeste 0 -- -- 63
2019-08-14 13:00:00 27.7 18 Sudoeste 31 Oeste 0 -- -- 63
2019-08-14 12:00:00 27.7 18 Oeste 28 Oeste 0 -- -- 64
2019-08-14 11:00:00 26.9 12 Sudoeste 24 Oeste 0 -- -- 66
2019-08-14 10:00:00 26.1 10 Sudoeste 18 Oeste 0 -- -- 69
2019-08-14 09:00:00 22.1 0 Calma -- -- 0 -- -- 74
2019-08-14 08:00:00 18.6 0 Calma -- -- 0 -- -- 83
2019-08-14 07:00:00 16.7 0 Calma 2 Noroeste 0 -- -- 84
2019-08-14 06:00:00 17.2 0 Calma -- -- 0 -- -- 83
2019-08-14 05:00:00 17.6 0 Calma -- -- 0 -- -- 82
2019-08-14 04:00:00 18.4 0 Calma 2 Noroeste 0 -- -- 79
2019-08-14 03:00:00 19.8 0 Calma 5 Norte 0 -- -- 76
2019-08-14 02:00:00 20.3 3 Norte 6 Norte 0 -- -- 76
2019-08-14 01:00:00 20.7 3 Norte 5 Sudeste 0 -- -- 76
2019-08-14 00:00:00 21.1 3 Sudeste 4 Sudeste 0 -- -- 72
2019-08-13 23:00:00 22.8 0 Calma 8 Sudeste 0 -- -- 71
2019-08-13 22:00:00 23.8 5 Sudeste 13 Este 0 -- -- 68
2019-08-13 21:00:00 24.7 10 Este 22 Sudeste 0 -- -- 65
2019-08-13 20:00:00 26.1 15 Sudeste 28 Este 0 -- -- 61
2019-08-13 19:00:00 27 21 Este 36 Sudeste 0 -- -- 58
2019-08-13 18:00:00 28 23 Sudeste 36 Sudeste 0 -- -- 55
2019-08-13 17:00:00 29.8 15 Este 27 Este 0 -- -- 49
2019-08-13 16:00:00 30.2 10 Este 28 Norte 0 -- -- 43
2019-08-13 15:00:00 28.8 14 Nordeste 30 Nordeste 0 -- -- 47
2019-08-13 14:00:00 27.6 14 Nordeste 27 Nordeste 0 -- -- 53
2019-08-13 13:00:00 26.8 17 Nordeste 31 Nordeste 0 -- -- 54
2019-08-13 12:00:00 26.8 22 Nordeste 37 Nordeste 0 -- -- 52
2019-08-13 11:00:00 26.8 20 Nordeste 38 Norte 0 -- -- 52
2019-08-13 10:00:00 26.3 21 Nordeste 38 Nordeste 0 -- -- 54
2019-08-13 09:00:00 24.7 21 Nordeste 31 Nordeste 0 -- -- 60
2019-08-13 08:00:00 23.3 18 Nordeste 30 Nordeste 0 -- -- 65
2019-08-13 07:00:00 22.8 16 Nordeste 28 Nordeste 0 -- -- 68
2019-08-13 06:00:00 22.9 13 Nordeste 23 Norte 0 -- -- 66
2019-08-13 05:00:00 23.6 16 Nordeste 27 Nordeste 0 -- -- 65
2019-08-13 04:00:00 23.8 14 Nordeste 28 Nordeste 0 -- -- 66
2019-08-13 03:00:00 24.1 15 Nordeste 25 Nordeste 0 -- -- 68
2019-08-13 02:00:00 24.5 14 Nordeste 27 Nordeste 0 -- -- 69
2019-08-13 01:00:00 24.5 12 Nordeste 22 Nordeste 0 -- -- 68
2019-08-13 00:00:00 24.6 8 Nordeste 20 Nordeste 0 -- -- 68
2019-08-12 23:00:00 24.8 11 Nordeste 27 Nordeste 0 -- -- 69
2019-08-12 22:00:00 25.1 11 Nordeste 24 Nordeste 0 -- -- 69
2019-08-12 21:00:00 25.5 14 Nordeste 37 Nordeste 0 -- -- 70
2019-08-12 20:00:00 26.3 22 Nordeste 36 Nordeste 0 -- -- 70
2019-08-12 19:00:00 27.7 26 Nordeste 38 Nordeste 0 -- -- 67
2019-08-12 18:00:00 28.7 25 Norte 39 Norte 0 -- -- 66
2019-08-12 17:00:00 29.6 22 Norte 37 Nordeste 0 -- -- 64
2019-08-12 16:00:00 29.6 24 Nordeste 38 Norte 0 -- -- 66
2019-08-12 15:00:00 29.9 21 Nordeste 34 Norte 0 -- -- 66
2019-08-12 14:00:00 30.4 19 Este 33 Este 0 -- -- 67
2019-08-12 13:00:00 30 18 Este 32 Sudeste 0 -- -- 67
2019-08-12 12:00:00 29 15 Nordeste 23 Nordeste 0 -- -- 68
2019-08-12 11:00:00 28.1 16 Nordeste 28 Nordeste 0 -- -- 73
2019-08-12 10:00:00 27.1 17 Nordeste 27 Norte 0 -- -- 78
2019-08-12 09:00:00 26.6 13 Norte 20 Norte 0 -- -- 82
2019-08-12 08:00:00 26.2 5 Nordeste 9 Nordeste 0 -- -- 89
2019-08-12 07:00:00 25.9 5 Nordeste 8 Nordeste 0 -- -- 89
2019-08-12 06:00:00 26.2 2 Nordeste 10 Norte 0 -- -- 87
2019-08-12 05:00:00 26.2 4 Nordeste 9 Noroeste 0 -- -- 88
2019-08-12 04:00:00 26.8 6 Noroeste 10 Nordeste 0 -- -- 88
2019-08-12 03:00:00 27.3 6 Noroeste 19 Sudoeste 0 -- -- 87
2019-08-12 02:00:00 27.4 14 Oeste 26 Oeste 0 -- -- 87
2019-08-12 01:00:00 27.4 17 Oeste 22 Oeste 0 -- -- 88
2019-08-12 00:00:00 26.7 4 Sudoeste 9 Oeste 0 -- -- 90
2019-08-11 23:00:00 26.8 4 Sur 8 Oeste 0 -- -- 88
2019-08-11 22:00:00 27.3 5 Oeste 13 Oeste 0 -- -- 87
2019-08-11 21:00:00 27.5 10 Oeste 16 Oeste 0 -- -- 86
2019-08-11 20:00:00 28.2 11 Oeste 22 Oeste 0 -- -- 82
2019-08-11 19:00:00 29 17 Oeste 26 Oeste 0 -- -- 77
2019-08-11 18:00:00 29.5 12 Sudoeste 22 Sudoeste 0 -- -- 76
2019-08-11 17:00:00 29.8 14 Oeste 27 Oeste 0 -- -- 74
2019-08-11 16:00:00 30.1 13 Sudoeste 28 Sudoeste 0 -- -- 73
2019-08-11 15:00:00 30.1 17 Oeste 25 Oeste 0 -- -- 74
2019-08-11 14:00:00 29.9 13 Sudoeste 28 Oeste 0 -- -- 72
2019-08-11 13:00:00 30.1 14 Sudoeste 24 Sudoeste 0 -- -- 75
2019-08-11 12:00:00 30.3 13 Sur 25 Sur 0 -- -- 72
2019-08-11 11:00:00 30 13 Sur 21 Sur 0 -- -- 74
2019-08-11 10:00:00 29.4 9 Este 18 Sudeste 0 -- -- 76
2019-08-11 09:00:00 27.5 8 Sudeste 12 Sudeste 0 -- -- 87
2019-08-11 08:00:00 25.1 5 Nordeste 10 Nordeste 0 -- -- 93
2019-08-11 07:00:00 24.1 3 Nordeste 5 Nordeste 0 -- -- 93
2019-08-11 06:00:00 23.9 0 Calma 5 Nordeste 0 -- -- 92
2019-08-11 05:00:00 24.4 2 Norte 8 Nordeste 0 -- -- 91
2019-08-11 04:00:00 25.2 6 Nordeste 9 Nordeste 0 -- -- 92
2019-08-11 03:00:00 25.1 0 Calma 9 Norte 0 -- -- 89
2019-08-11 02:00:00 26 3 Nordeste 7 Este 0 -- -- 88
2019-08-11 01:00:00 27.1 4 Este 10 Este 0 -- -- 89
2019-08-11 00:00:00 27.5 7 Este 15 Este 0 -- -- 89
2019-08-10 23:00:00 27.4 9 Este 17 Este 0 -- -- 88
2019-08-10 22:00:00 27.9 9 Este 20 Este 0 -- -- 84
2019-08-10 21:00:00 29.2 13 Este 22 Este 0 -- -- 73
2019-08-10 20:00:00 31.4 15 Este 26 Sudeste 0 -- -- 56
2019-08-10 19:00:00 33.2 17 Sudeste 28 Sudeste 0 -- -- 53
2019-08-10 18:00:00 34.2 17 Este 31 Sudeste 0 -- -- 51
2019-08-10 17:00:00 34.3 21 Sudeste 31 Sudeste 0 -- -- 53
2019-08-10 16:00:00 33.7 22 Sudeste 34 Este 0 -- -- 57
2019-08-10 15:00:00 33.4 23 Sudeste 35 Sudeste 0 -- -- 60
2019-08-10 14:00:00 32.8 21 Sudeste 33 Sudeste 0 -- -- 63
2019-08-10 13:00:00 33.2 19 Sudeste 32 Sudeste 0 -- -- 61
2019-08-10 12:00:00 32 18 Sudeste 29 Sudeste 0 -- -- 61
2019-08-10 11:00:00 32.3 12 Sudeste 20 Sudeste 0 -- -- 54
2019-08-10 10:00:00 29.8 7 Este 14 Este 0 -- -- 70
2019-08-10 09:00:00 26.6 5 Este 15 Nordeste 0 -- -- 92
2019-08-10 08:00:00 24.5 3 Nordeste 8 Nordeste 0 -- -- 95
2019-08-10 07:00:00 22.9 0 Calma -- -- 0 -- -- 95
2019-08-10 06:00:00 22.7 0 Calma 4 Nordeste 0 -- -- 92
2019-08-10 05:00:00 22.7 2 Este 6 Norte 0 -- -- 92
2019-08-10 04:00:00 22.7 0 Calma 3 Norte 0 -- -- 93
2019-08-10 03:00:00 22.8 2 Sudeste 6 Sur 0 -- -- 93
2019-08-10 02:00:00 23.3 5 Sur 8 Sudeste 0 -- -- 93
2019-08-10 01:00:00 23.7 6 Sudeste 7 Sudeste 0 -- -- 92
2019-08-10 00:00:00 24.4 4 Sur 9 Sudoeste 0 -- -- 90
2019-08-09 23:00:00 25.4 4 Sur 8 Sudoeste 0 -- -- 88
2019-08-09 22:00:00 26.7 4 Sudoeste 10 Sudoeste 0 -- -- 90
2019-08-09 21:00:00 27.3 6 Sudoeste 15 Sur 0 -- -- 86
2019-08-09 20:00:00 28.8 9 Sudoeste 19 Sudoeste 0 -- -- 81
2019-08-09 19:00:00 29.4 10 Sudoeste 22 Sudoeste 0 -- -- 77
2019-08-09 18:00:00 29.7 12 Sudoeste 23 Oeste 0 -- -- 76
2019-08-09 17:00:00 29.7 18 Sudoeste 29 Oeste 0 -- -- 75
2019-08-09 16:00:00 30.7 16 Sur 27 Sur 0 -- -- 70
2019-08-09 15:00:00 30.7 15 Sudoeste 27 Sudoeste 0 -- -- 68
2019-08-09 14:00:00 30.4 14 Sudoeste 24 Sudoeste 0 -- -- 73
2019-08-09 13:00:00 30.1 14 Sur 23 Sur 0 -- -- 73
2019-08-09 12:00:00 29.4 15 Sudoeste 24 Sur 0 -- -- 75
2019-08-09 11:00:00 29.4 13 Sur 19 Sur 0 -- -- 77
2019-08-09 10:00:00 29.1 11 Sur 17 Sudeste 0 -- -- 77
2019-08-09 09:00:00 26.8 3 Este 5 Sudeste 0 -- -- 88
2019-08-09 08:00:00 22.8 0 Calma -- -- 0 -- -- 95
2019-08-09 07:00:00 20.9 0 Calma 4 Sudeste 0 -- -- 95
2019-08-09 06:00:00 21.3 3 Sudeste 4 Sudeste 0 -- -- 92
2019-08-09 05:00:00 22.1 0 Calma 3 Norte 0 -- -- 91
2019-08-09 04:00:00 22.9 0 Calma 3 Norte 0 -- -- 91
2019-08-09 03:00:00 23 0 Calma -- -- 0 -- -- 92
2019-08-09 02:00:00 23.7 0 Calma 5 Sudeste 0 -- -- 93
2019-08-09 01:00:00 24.2 4 Sudeste 5 Sudeste 0 -- -- 91
2019-08-09 00:00:00 24.2 3 Este 8 Sudeste 0 -- -- 91
2019-08-08 23:00:00 24.7 3 Sur 5 Sudeste 0 -- -- 88
2019-08-08 22:00:00 26.6 3 Sudoeste 6 Sudoeste 0 -- -- 89
2019-08-08 21:00:00 27.5 4 Sudoeste 13 Oeste 0 -- -- 85
2019-08-08 20:00:00 28.9 9 Oeste 18 Oeste 0 -- -- 80
2019-08-08 19:00:00 29.2 11 Sudoeste 20 Sudoeste 0 -- -- 79
2019-08-08 18:00:00 29.7 12 Sudoeste 24 Sudoeste 0 -- -- 77
2019-08-08 17:00:00 29.7 16 Sudoeste 24 Sudoeste 0 -- -- 76
2019-08-08 16:00:00 29.6 13 Sudoeste 25 Oeste 0 -- -- 76
2019-08-08 15:00:00 30 14 Sudoeste 27 Sur 0 -- -- 73
2019-08-08 14:00:00 29.9 15 Sur 30 Sur 0 -- -- 74
2019-08-08 13:00:00 30.9 16 Sur 27 Sudoeste 0 -- -- 66
2019-08-08 12:00:00 30.8 13 Sur 21 Sudoeste 0 -- -- 71
2019-08-08 11:00:00 30 8 Sur 15 Sudeste 0 -- -- 72
2019-08-08 10:00:00 28.5 7 Sudeste 22 Sudeste 0 -- -- 79
2019-08-08 09:00:00 27.6 11 Sudeste 20 Sudeste 0 -- -- 84
2019-08-08 08:00:00 24.7 7 Sudeste 13 Sudeste 0 -- -- 91
2019-08-08 07:00:00 23.5 4 Sudeste 8 Sudeste 0 -- -- 90
2019-08-08 06:00:00 24.5 4 Nordeste 9 Norte 0 -- -- 89
2019-08-08 05:00:00 24.7 6 Norte 17 Este 0 -- -- 88
2019-08-08 04:00:00 24.5 0 Calma 5 Norte 0 -- -- 88
2019-08-08 03:00:00 24.6 2 Norte 5 Norte 0 -- -- 89
2019-08-08 02:00:00 24.6 0 Calma 3 Sudoeste 0 -- -- 85
2019-08-08 01:00:00 25.8 2 Sur 4 Norte 0 -- -- 84
2019-08-08 00:00:00 26.7 3 Nordeste 10 Sudeste 0 -- -- 83
2019-08-07 23:00:00 26.7 6 Sudeste 11 Sudeste 0 -- -- 86
2019-08-07 22:00:00 27.1 6 Sudeste 11 Oeste 0 -- -- 86
2019-08-07 21:00:00 27.5 6 Sudoeste 16 Oeste 0 -- -- 85
2019-08-07 20:00:00 28.1 13 Oeste 21 Oeste 0 -- -- 81
2019-08-07 19:00:00 28.9 13 Oeste 26 Oeste 0 -- -- 77
2019-08-07 18:00:00 29.4 15 Sudoeste 27 Oeste 0 -- -- 76
2019-08-07 17:00:00 29.6 14 Sudoeste 28 Oeste 0 -- -- 76
2019-08-07 16:00:00 29.9 16 Sudoeste 27 Sudoeste 0 -- -- 73
2019-08-07 15:00:00 30 17 Sudoeste 27 Sudoeste 0 -- -- 72
2019-08-07 14:00:00 30 14 Sudoeste 27 Sudoeste 0 -- -- 74
2019-08-07 13:00:00 29.4 15 Sudoeste 24 Oeste 0 -- -- 76
2019-08-07 12:00:00 29.2 13 Oeste 23 Sudoeste 0 -- -- 75
2019-08-07 11:00:00 28.3 9 Sur 19 Sudoeste 0 -- -- 79
2019-08-07 10:00:00 28.5 11 Sur 18 Sur 0 -- -- 77
2019-08-07 09:00:00 25.3 3 Oeste 5 Noroeste 0 -- -- 88
2019-08-07 08:00:00 23.1 0 Calma 4 Sur 0 -- -- 93
2019-08-07 07:00:00 22.1 0 Calma 4 Sur 0 -- -- 92
2019-08-07 06:00:00 23 2 Nordeste 4 Norte 0 -- -- 93
2019-08-07 05:00:00 23.7 0 Calma 7 Sudeste 0 -- -- 93
2019-08-07 04:00:00 23.6 6 Sudeste 7 Sur 0 -- -- 92
2019-08-07 03:00:00 23.1 0 Calma 3 Sudeste 0 -- -- 89
2019-08-07 02:00:00 24.2 0 Calma 4 Sur 0 -- -- 89
2019-08-07 01:00:00 24.6 2 Nordeste 7 Nordeste 0 -- -- 90
2019-08-07 00:00:00 24.8 3 Sur 6 Sur 0 -- -- 89
2019-08-06 23:00:00 25.6 3 Sur 12 Sur 0 -- -- 87
2019-08-06 22:00:00 25.8 5 Sur 8 Sur 0 -- -- 86
2019-08-06 21:00:00 27.1 3 Sudeste 12 Sudoeste 0 -- -- 85
2019-08-06 20:00:00 28.2 10 Oeste 23 Sudoeste 0 -- -- 81
2019-08-06 19:00:00 28.8 17 Sudoeste 26 Oeste 0 -- -- 78
2019-08-06 18:00:00 29.5 15 Sudoeste 25 Sudoeste 0 -- -- 76
2019-08-06 17:00:00 29.6 21 Oeste 33 Oeste 0 -- -- 76
2019-08-06 16:00:00 29.7 22 Oeste 31 Oeste 0 -- -- 75
2019-08-06 15:00:00 29.7 22 Oeste 32 Oeste 0 -- -- 75
2019-08-06 14:00:00 29.5 21 Oeste 30 Sudoeste 0 -- -- 74
2019-08-06 13:00:00 29.4 18 Sudoeste 30 Sudoeste 0 -- -- 75
2019-08-06 12:00:00 29.9 15 Sudoeste 25 Sudoeste 0 -- -- 71
2019-08-06 11:00:00 30.1 10 Sudeste 21 Este 0 -- -- 67
2019-08-06 10:00:00 28.4 7 Este 22 Este 0 -- -- 76
2019-08-06 09:00:00 25.6 4 Norte 8 Norte 0 -- -- 86
2019-08-06 08:00:00 23.5 0 Calma 6 Norte 0 -- -- 91
2019-08-06 07:00:00 22.9 0 Calma 7 Norte 0 -- -- 92
2019-08-06 06:00:00 23.2 2 Este 6 Sur 0 -- -- 90
2019-08-06 05:00:00 23.9 6 Nordeste 14 Nordeste 0 -- -- 92
2019-08-06 04:00:00 22.6 2 Norte 5 Norte 0 -- -- 89
2019-08-06 03:00:00 22.5 0 Calma -- -- 0 -- -- 88
2019-08-06 02:00:00 23.3 0 Calma 3 Sudeste 0 -- -- 88
2019-08-06 01:00:00 24 2 Sudeste 3 Sudeste 0 -- -- 87
2019-08-06 00:00:00 25.3 0 Calma 9 Este 0 -- -- 85
2019-08-05 23:00:00 26.2 6 Este 13 Este 0 -- -- 87
2019-08-05 22:00:00 26.5 9 Este 19 Sudeste 0 -- -- 86
2019-08-05 21:00:00 27.1 14 Sudeste 22 Sudeste 0 -- -- 83
2019-08-05 20:00:00 28.7 15 Sudeste 25 Sur 0 -- -- 73
2019-08-05 19:00:00 30 17 Sudeste 24 Sudeste 0 -- -- 60
2019-08-05 18:00:00 31.1 16 Sudeste 27 Este 0 -- -- 55
2019-08-05 17:00:00 31.5 17 Sudeste 28 Sudeste 0 -- -- 54
2019-08-05 16:00:00 32 17 Sudeste 29 Este 0 -- -- 52
2019-08-05 15:00:00 31.9 17 Sudeste 31 Sudeste 0 -- -- 50
2019-08-05 14:00:00 32.3 16 Sudeste 26 Sudeste 0 -- -- 48
2019-08-05 13:00:00 32.1 14 Sudeste 24 Sudeste 0 -- -- 40
2019-08-05 12:00:00 31.6 12 Este 25 Este 0 -- -- 45
2019-08-05 11:00:00 29.9 14 Este 26 Sudeste 0 -- -- 55
2019-08-05 10:00:00 28.7 14 Sudeste 23 Sudeste 0 -- -- 69
2019-08-05 09:00:00 25.8 5 Norte 17 Este 0 -- -- 81
2019-08-05 08:00:00 22.3 4 Norte 8 Norte 0 -- -- 88
2019-08-05 07:00:00 20.6 0 Calma 6 Norte 0 -- -- 88
2019-08-05 06:00:00 21.6 3 Nordeste 12 Noroeste 0 -- -- 88
2019-08-05 05:00:00 23 3 Nordeste 11 Nordeste 0 -- -- 86
2019-08-05 04:00:00 23.1 9 Nordeste 14 Norte 0 -- -- 85
2019-08-05 03:00:00 23.3 5 Nordeste 9 Nordeste 0 -- -- 83
2019-08-05 02:00:00 23.5 4 Nordeste 9 Nordeste 0 -- -- 82
2019-08-05 01:00:00 23.8 0 Calma 6 Este 0 -- -- 81
2019-08-05 00:00:00 24.2 3 Sudeste 7 Nordeste 0 -- -- 75
2019-08-04 23:00:00 25.4 3 Este 11 Este 0 -- -- 74
2019-08-04 22:00:00 26.7 7 Este 20 Este 0 -- -- 72
2019-08-04 21:00:00 27.6 15 Sudeste 26 Este 0 -- -- 65
2019-08-04 20:00:00 29.5 19 Este 28 Este 0 -- -- 55
2019-08-04 19:00:00 30.6 19 Sudeste 26 Sudeste 0 -- -- 50
2019-08-04 18:00:00 31.9 18 Sudeste 29 Este 0 -- -- 48
2019-08-04 17:00:00 32.8 17 Sudeste 28 Sudeste 0 -- -- 43
2019-08-04 16:00:00 32.9 17 Sudeste 32 Sudeste 0 -- -- 38
2019-08-04 15:00:00 32.9 17 Sudeste 31 Sur 0 -- -- 38
2019-08-04 14:00:00 32.9 18 Sur 30 Sudeste 0 -- -- 36
2019-08-04 13:00:00 32.7 21 Sudeste 35 Este 0 -- -- 34
2019-08-04 12:00:00 32.5 16 Sudeste 31 Sudeste 0 -- -- 34
2019-08-04 11:00:00 32.2 5 Sur 16 Sudeste 0 -- -- 36
2019-08-04 10:00:00 29.8 4 Oeste 9 Noroeste 0 -- -- 41
2019-08-04 09:00:00 26.4 4 Norte 12 Nordeste 0 -- -- 52
2019-08-04 08:00:00 23.4 8 Nordeste 18 Nordeste 0 -- -- 63
2019-08-04 07:00:00 19.7 0 Calma 5 Norte 0 -- -- 81
2019-08-04 06:00:00 21 4 Noroeste 12 Nordeste 0 -- -- 83
2019-08-04 05:00:00 22.9 9 Nordeste 18 Nordeste 0 -- -- 76
2019-08-04 04:00:00 21.6 7 Nordeste 12 Nordeste 0 -- -- 79
2019-08-04 03:00:00 20.4 0 Calma 3 Noroeste 0 -- -- 81
2019-08-04 02:00:00 22.5 0 Calma 6 Nordeste 0 -- -- 78
2019-08-04 01:00:00 21.9 0 Calma 4 Norte 0 -- -- 81
2019-08-04 00:00:00 23.8 0 Calma 8 Este 0 -- -- 76
2019-08-03 23:00:00 25.6 6 Este 10 Este 0 -- -- 75
2019-08-03 22:00:00 26.3 4 Este 21 Sudeste 0 -- -- 72
2019-08-03 21:00:00 27.2 15 Sudeste 26 Este 0 -- -- 65
2019-08-03 20:00:00 29 17 Sudeste 29 Sudeste 0 -- -- 52
2019-08-03 19:00:00 30.1 22 Sudeste 31 Sudeste 0 -- -- 47
2019-08-03 18:00:00 31 23 Sudeste 34 Sudeste 0 -- -- 47
2019-08-03 17:00:00 32 23 Sudeste 36 Sudeste 0 -- -- 44
2019-08-03 16:00:00 31.8 24 Sudeste 34 Sudeste 0 -- -- 50
2019-08-03 15:00:00 33.4 21 Sudeste 33 Sudeste 0 -- -- 41
2019-08-03 14:00:00 33.1 22 Sudeste 33 Sudeste 0 -- -- 44
2019-08-03 13:00:00 32.4 24 Sudeste 37 Sudeste 0 -- -- 46
2019-08-03 12:00:00 33.1 17 Sudeste 27 Este 0 -- -- 39
2019-08-03 11:00:00 31.2 17 Este 26 Este 0 -- -- 42
2019-08-03 10:00:00 29.9 12 Este 18 Este 0 -- -- 45
2019-08-03 09:00:00 26.9 6 Norte 15 Nordeste 0 -- -- 50
2019-08-03 08:00:00 23.9 5 Nordeste 13 Nordeste 0 -- -- 67
2019-08-03 07:00:00 20.2 5 Norte 6 Norte 0 -- -- 85
2019-08-03 06:00:00 20 2 Norte 5 Noroeste 0 -- -- 83
2019-08-03 05:00:00 21.1 5 Norte 8 Norte 0 -- -- 84
2019-08-03 04:00:00 21.5 3 Norte 7 Norte 0 -- -- 81
2019-08-03 03:00:00 22.1 4 Norte 11 Nordeste 0 -- -- 78
2019-08-03 02:00:00 22 0 Calma 5 Nordeste 0 -- -- 76
2019-08-03 01:00:00 22 0 Calma 3 Norte 0 -- -- 74
2019-08-03 00:00:00 23.7 0 Calma 9 Nordeste 0 -- -- 68
2019-08-02 23:00:00 25.3 8 Nordeste 13 Nordeste 0 -- -- 65
2019-08-02 22:00:00 26.7 10 Nordeste 17 Norte 0 -- -- 56
2019-08-02 21:00:00 27.3 10 Oeste 17 Oeste 0 -- -- 71
2019-08-02 20:00:00 28.7 14 Oeste 23 Sudoeste 0 -- -- 64
2019-08-02 19:00:00 29.6 14 Sudoeste 35 Oeste 0 -- -- 58
2019-08-02 18:00:00 31 26 Oeste 33 Oeste 0 -- -- 56
2019-08-02 17:00:00 33 19 Este 33 Este 0 -- -- 44
2019-08-02 16:00:00 32.5 24 Sudeste 39 Sudeste 0 -- -- 43
2019-08-02 15:00:00 32.6 24 Sudeste 35 Este 0 -- -- 43
2019-08-02 14:00:00 33.1 24 Este 37 Este 0 -- -- 42
2019-08-02 13:00:00 32.5 16 Norte 31 Este 0 -- -- 40
2019-08-02 12:00:00 31.2 15 Nordeste 29 Norte 0 -- -- 46
2019-08-02 11:00:00 30 18 Nordeste 36 Nordeste 0 -- -- 48
2019-08-02 10:00:00 28.5 21 Nordeste 33 Nordeste 0 -- -- 49
2019-08-02 09:00:00 26.6 15 Nordeste 28 Nordeste 0 -- -- 65
2019-08-02 08:00:00 25.2 16 Nordeste 27 Nordeste 0 -- -- 76
2019-08-02 07:00:00 24.9 19 Norte 28 Norte 0 -- -- 86
2019-08-02 06:00:00 25 18 Norte 27 Norte 0 -- -- 89
2019-08-02 05:00:00 24.9 7 Norte 16 Norte 0 -- -- 88
2019-08-02 04:00:00 24.5 5 Noroeste 8 Noroeste 0 -- -- 85
2019-08-02 03:00:00 24.7 7 Norte 12 Norte 0 -- -- 84
2019-08-02 02:00:00 25.6 8 Norte 10 Norte 0 -- -- 83
2019-08-02 01:00:00 25.7 0 Calma 8 Este 0 -- -- 81
2019-08-02 00:00:00 26.3 7 Este 15 Nordeste 0 -- -- 80
2019-08-01 23:00:00 26.9 6 Nordeste 17 Nordeste 0 -- -- 75
2019-08-01 22:00:00 27.5 14 Nordeste 18 Nordeste 0 -- -- 79
2019-08-01 21:00:00 28 10 Este 30 Este 0 -- -- 79
2019-08-01 20:00:00 28.3 10 Este 21 Sudeste 0 -- -- 75
2019-08-01 19:00:00 28.4 14 Oeste 26 Oeste 0 -- -- 76
2019-08-01 18:00:00 30.1 6 Sur 24 Sudeste 0 -- -- 68
2019-08-01 17:00:00 31.5 14 Sudoeste 28 Sudoeste 0 -- -- 63
2019-08-01 16:00:00 33.7 13 Sur 24 Sudeste 0 -- -- 56
2019-08-01 15:00:00 33.3 13 Sudeste 31 Sudeste 0 -- -- 55
2019-08-01 14:00:00 33.1 17 Sudeste 28 Este 0 -- -- 54
2019-08-01 13:00:00 32.3 14 Este 28 Este 0 -- -- 56
2019-08-01 12:00:00 30.5 17 Este 38 Este 0 -- -- 62
2019-08-01 11:00:00 29.7 23 Este 42 Este 0 -- -- 61
2019-08-01 10:00:00 28.7 18 Este 37 Este 0 -- -- 65
2019-08-01 09:00:00 27.1 21 Este 34 Este 0 -- -- 71
2019-08-01 08:00:00 25.6 16 Nordeste 27 Nordeste 0 -- -- 75
2019-08-01 07:00:00 24.6 11 Nordeste 28 Este 0 -- -- 78
2019-08-01 06:00:00 24.4 13 Nordeste 28 Nordeste 0 -- -- 74
2019-08-01 05:00:00 23.4 12 Norte 26 Nordeste 0 -- -- 78
2019-08-01 04:00:00 23.5 18 Nordeste 31 Nordeste 0 -- -- 77
2019-08-01 03:00:00 23.3 11 Nordeste 17 Norte 0 -- -- 75
2019-08-01 02:00:00 23.5 11 Nordeste 20 Norte 0 -- -- 73
2019-08-01 01:00:00 24 7 Nordeste 15 Nordeste 0 -- -- 72
2019-08-01 00:00:00 24.7 12 Nordeste 31 Nordeste 0 -- -- 70
2019-07-31 23:00:00 24.9 13 Nordeste 26 Nordeste 0 -- -- 69
2019-07-31 22:00:00 25.7 13 Nordeste 29 Nordeste 0 -- -- 64
2019-07-31 21:00:00 26 19 Nordeste 32 Este 0 -- -- 65
2019-07-31 20:00:00 26.7 22 Nordeste 34 Nordeste 0 -- -- 59
2019-07-31 19:00:00 27.3 20 Este 29 Este 0 -- -- 55
2019-07-31 18:00:00 27.8 16 Nordeste 31 Este 0 -- -- 55
2019-07-31 17:00:00 28.6 22 Este 40 Este 0 -- -- 52
2019-07-31 16:00:00 29.3 23 Este 46 Nordeste 0 -- -- 50
2019-07-31 15:00:00 29.2 26 Nordeste 43 Este 0 -- -- 51
2019-07-31 14:00:00 27.5 26 Nordeste 43 Nordeste 0 -- -- 57
2019-07-31 13:00:00 26.8 24 Este 40 Este 0 -- -- 62
2019-07-31 12:00:00 27 21 Este 44 Nordeste 0 -- -- 60
2019-07-31 11:00:00 27.9 23 Nordeste 41 Este 0 -- -- 54
2019-07-31 10:00:00 27.3 22 Nordeste 36 Nordeste 0 -- -- 56
2019-07-31 09:00:00 25.7 19 Nordeste 29 Nordeste 0 -- -- 66
2019-07-31 08:00:00 24.2 14 Nordeste 22 Nordeste 0 -- -- 72
2019-07-31 07:00:00 21.9 10 Nordeste 14 Nordeste 0 -- -- 80
2019-07-31 06:00:00 22.2 8 Nordeste 15 Nordeste 0 -- -- 81
2019-07-31 05:00:00 22.7 9 Nordeste 14 Nordeste 0 -- -- 81
2019-07-31 04:00:00 23 10 Nordeste 17 Norte 0 -- -- 80
2019-07-31 03:00:00 23.2 8 Nordeste 11 Nordeste 0 -- -- 79
2019-07-31 02:00:00 24.3 8 Nordeste 13 Nordeste 0 -- -- 79
2019-07-31 01:00:00 24.7 7 Nordeste 14 Nordeste 0 -- -- 81
2019-07-31 00:00:00 25.1 9 Nordeste 17 Este 0 -- -- 83
2019-07-30 23:00:00 25.5 14 Este 28 Este 0 -- -- 82
2019-07-30 22:00:00 26.1 15 Este 24 Este 0 -- -- 81
2019-07-30 21:00:00 27.1 14 Este 25 Este 0 -- -- 75
2019-07-30 20:00:00 28.5 17 Sudeste 29 Sudeste 0 -- -- 69
2019-07-30 19:00:00 29.3 18 Sudeste 28 Sudeste 0 -- -- 63
2019-07-30 18:00:00 30.2 16 Sudeste 28 Sudeste 0 -- -- 59
2019-07-30 17:00:00 31.1 19 Sudeste 31 Sudeste 0 -- -- 46
2019-07-30 16:00:00 32.3 18 Sudeste 33 Sudeste 0 -- -- 41
2019-07-30 15:00:00 31.9 21 Sudeste 32 Sudeste 0 -- -- 41
2019-07-30 14:00:00 31.5 21 Sudeste 31 Sudeste 0 -- -- 48
2019-07-30 13:00:00 31.7 18 Sudeste 28 Sudeste 0 -- -- 43
2019-07-30 12:00:00 30.7 13 Este 23 Sudoeste 0 -- -- 54
2019-07-30 11:00:00 29.9 14 Sur 23 Sur 0 -- -- 61
2019-07-30 10:00:00 28.1 5 Norte 14 Norte 0 -- -- 62
2019-07-30 09:00:00 25.6 9 Norte 15 Norte 0 -- -- 75
2019-07-30 08:00:00 21.7 6 Norte 12 Nordeste 0 -- -- 87
2019-07-30 07:00:00 18.3 0 Calma 3 Noroeste 0 -- -- 89
2019-07-30 06:00:00 18.4 0 Calma 3 Norte 0 -- -- 89
2019-07-30 05:00:00 19 0 Calma 3 Noroeste 0 -- -- 88
2019-07-30 04:00:00 19.6 0 Calma 4 Sudeste 0 -- -- 86
2019-07-30 03:00:00 21.1 3 Nordeste 6 Sudeste 0 -- -- 85
2019-07-30 02:00:00 21.1 5 Sur 7 Sudeste 0 -- -- 85
2019-07-30 01:00:00 21.7 5 Sudeste 8 Sudeste 0 -- -- 82
2019-07-30 00:00:00 22.8 5 Sudoeste 8 Sudoeste 0 -- -- 78
2019-07-29 23:00:00 23 3 Sur 6 Sur 0 -- -- 77
2019-07-29 22:00:00 24.6 0 Calma 4 Sur 0 -- -- 72
2019-07-29 21:00:00 26.7 3 Sudoeste 16 Sudoeste 0 -- -- 70
2019-07-29 20:00:00 27.8 9 Sudoeste 21 Oeste 0 -- -- 67
2019-07-29 19:00:00 27.9 13 Sudoeste 25 Sudoeste 0 -- -- 67
2019-07-29 18:00:00 28.2 14 Sudoeste 26 Sudoeste 0 -- -- 67
2019-07-29 17:00:00 28.8 14 Sudoeste 28 Sudoeste 0 -- -- 65
2019-07-29 16:00:00 28.9 16 Sudoeste 33 Oeste 0 -- -- 64
2019-07-29 15:00:00 28.6 19 Sudoeste 32 Sudoeste 0 -- -- 64
2019-07-29 14:00:00 28.7 11 Sudoeste 24 Oeste 0 -- -- 63
2019-07-29 13:00:00 28.4 14 Oeste 27 Oeste 0 -- -- 66
2019-07-29 12:00:00 28 15 Sudoeste 26 Sudoeste 0 -- -- 63
2019-07-29 11:00:00 27.4 13 Sudoeste 23 Sudoeste 0 -- -- 68
2019-07-29 10:00:00 26.3 10 Sudoeste 17 Sudoeste 0 -- -- 73
2019-07-29 09:00:00 22.9 0 Calma -- -- 0 -- -- 72
2019-07-29 08:00:00 19.6 0 Calma 0 Calma 0 -- -- 76
2019-07-29 07:00:00 16.7 0 Calma -- -- 0 -- -- 86
2019-07-29 06:00:00 16.6 0 Calma -- -- 0 -- -- 83
2019-07-29 05:00:00 17.2 0 Calma -- -- 0 -- -- 82
2019-07-29 04:00:00 17.8 0 Calma -- -- 0 -- -- 80
2019-07-29 03:00:00 18.3 0 Calma 4 Sudeste 0 -- -- 78
2019-07-29 02:00:00 20.4 2 Sudeste 8 Norte 0 -- -- 75
2019-07-29 01:00:00 22.6 6 Norte 18 Oeste 0 -- -- 71
2019-07-29 00:00:00 24.4 11 Oeste 19 Oeste 0 -- -- 71
2019-07-28 23:00:00 24.5 11 Oeste 16 Oeste 0 -- -- 70
2019-07-28 22:00:00 24.8 9 Noroeste 24 Oeste 0 -- -- 61
2019-07-28 21:00:00 25.7 18 Oeste 32 Oeste 0 -- -- 62
2019-07-28 20:00:00 26.6 20 Oeste 34 Oeste 0 -- -- 59
2019-07-28 19:00:00 27.3 26 Oeste 36 Oeste 0 -- -- 57
2019-07-28 18:00:00 28 26 Oeste 36 Oeste 0 -- -- 55
2019-07-28 17:00:00 28.5 20 Oeste 32 Oeste 0 -- -- 50
2019-07-28 16:00:00 28.3 17 Sudoeste 31 Oeste 0 -- -- 55
2019-07-28 15:00:00 28.5 17 Sudoeste 31 Sudoeste 0 -- -- 56
2019-07-28 14:00:00 28 17 Sudoeste 29 Sudoeste 0 -- -- 58
2019-07-28 13:00:00 28.5 14 Sudoeste 30 Sur 0 -- -- 54
2019-07-28 12:00:00 28.3 15 Sudoeste 28 Sur 0 -- -- 53
2019-07-28 11:00:00 27.9 8 Sudoeste 17 Oeste 0 -- -- 51
2019-07-28 10:00:00 27 8 Oeste 13 Oeste 0 -- -- 53
2019-07-28 09:00:00 25.4 6 Oeste 10 Sudoeste 0 -- -- 60
2019-07-28 08:00:00 23.6 3 Sur 13 Noroeste 0 -- -- 74
2019-07-28 07:00:00 21 4 Norte 10 Noroeste 0 -- -- 85
2019-07-28 06:00:00 21.9 5 Sur 8 Sur 0 -- -- 80
2019-07-28 05:00:00 22.8 4 Sudeste 12 Sudeste 0 -- -- 76
2019-07-28 04:00:00 24.3 10 Norte 14 Norte 0 -- -- 68
2019-07-28 03:00:00 25.1 5 Norte 24 Oeste 0 -- -- 68
2019-07-28 02:00:00 25.7 12 Oeste 20 Oeste 0 -- -- 77
2019-07-28 01:00:00 25.7 4 Noroeste 15 Oeste 0 -- -- 75
2019-07-28 00:00:00 26.6 14 Oeste 28 Oeste 0 -- -- 74
2019-07-27 23:00:00 26.8 15 Oeste 24 Oeste 0 -- -- 73
2019-07-26 12:00:00 -- -- -- -- -- -- -- -- --
2019-07-26 11:00:00 30 17 Sudeste 28 Sudeste 0 -- -- 61
2019-07-26 10:00:00 29.4 12 Sudeste 21 Sudeste 0 -- -- 66
2019-07-26 09:00:00 27.3 5 Este 11 Nordeste 0 -- -- 78
2019-07-26 08:00:00 23.5 7 Nordeste 15 Nordeste 0 -- -- 87
2019-07-26 07:00:00 20.6 3 Norte 7 Nordeste 0 -- -- 87
2019-07-26 06:00:00 21.6 3 Este 7 Nordeste 0 -- -- 85
2019-07-26 05:00:00 22.3 3 Norte 7 Nordeste 0 -- -- 87
2019-07-26 04:00:00 22.3 3 Este 10 Nordeste 0 -- -- 85
2019-07-26 03:00:00 21.4 2 Norte 5 Nordeste 0 -- -- 85
2019-07-26 02:00:00 22.8 0 Calma 4 Norte 0 -- -- 79
2019-07-26 01:00:00 24.2 0 Calma 6 Norte 0 -- -- 83
2019-07-26 00:00:00 25 3 Este 8 Nordeste 0 -- -- 80
2019-07-25 23:00:00 26.5 4 Nordeste 11 Este 0 -- -- 79
2019-07-25 22:00:00 27.1 9 Este 19 Este 0 -- -- 77
2019-07-25 21:00:00 28.2 12 Este 24 Sudeste 0 -- -- 68
2019-07-25 20:00:00 29.9 20 Sudeste 40 Sudeste 0 -- -- 59
2019-07-25 19:00:00 31.6 22 Sudeste 32 Sudeste 0 -- -- 49
2019-07-25 18:00:00 32.3 25 Sudeste 33 Sudeste 0 -- -- 46
2019-07-25 17:00:00 33.1 23 Sudeste 34 Sudeste 0 -- -- 40
2019-07-25 16:00:00 33.7 22 Sudeste 33 Sudeste 0 -- -- 36
2019-07-25 15:00:00 34.2 21 Sudeste 32 Sudeste 0 -- -- 35
2019-07-25 14:00:00 34.4 19 Sudeste 29 Sudeste 0 -- -- 31
2019-07-25 13:00:00 34.4 15 Este 29 Sudeste 0 -- -- 35
2019-07-25 12:00:00 33.3 15 Este 26 Este 0 -- -- 43
2019-07-25 11:00:00 32 12 Este 21 Este 0 -- -- 51
2019-07-25 10:00:00 30.7 10 Este 19 Este 0 -- -- 53
2019-07-25 09:00:00 26.6 6 Norte 10 Norte 0 -- -- 80
2019-07-25 08:00:00 23.7 6 Norte 10 Nordeste 0 -- -- 89
2019-07-25 07:00:00 21.8 4 Norte 9 Nordeste 0 -- -- 90
2019-07-25 06:00:00 21.4 2 Norte 4 Norte 0 -- -- 89
2019-07-25 05:00:00 22.2 2 Norte 5 Nordeste 0 -- -- 89
2019-07-25 04:00:00 22.8 2 Nordeste 5 Nordeste 0 -- -- 89
2019-07-25 03:00:00 22.6 2 Norte 4 Nordeste 0 -- -- 84
2019-07-25 02:00:00 24 3 Norte 7 Norte 0 -- -- 83
2019-07-25 01:00:00 24.3 2 Nordeste 5 Este 0 -- -- 82
2019-07-25 00:00:00 25.7 3 Nordeste 9 Este 0 -- -- 82
2019-07-24 23:00:00 26.3 5 Este 12 Este 0 -- -- 80
2019-07-24 22:00:00 27 6 Este 21 Sudeste 0 -- -- 75
2019-07-24 21:00:00 27.9 17 Sudeste 27 Sudeste 0 -- -- 68
2019-07-24 20:00:00 29.6 20 Sudeste 30 Sudeste 0 -- -- 55
2019-07-24 19:00:00 31.1 19 Sudeste 26 Sudeste 0 -- -- 49
2019-07-24 18:00:00 32 16 Sudeste 27 Sudeste 0 -- -- 47
2019-07-24 17:00:00 32.8 18 Sudeste 30 Sudeste 0 -- -- 40
2019-07-24 16:00:00 33.4 21 Sudeste 31 Sudeste 0 -- -- 42
2019-07-24 15:00:00 33.7 22 Sudeste 35 Sudeste 0 -- -- 42
2019-07-24 14:00:00 34.5 21 Sudeste 32 Este 0 -- -- 34
2019-07-24 13:00:00 34.1 14 Sudoeste 24 Sudoeste 0 -- -- 39
2019-07-24 12:00:00 34.5 6 Noroeste 17 Noroeste 0 -- -- 38
2019-07-24 11:00:00 31.9 9 Norte 16 Noroeste 0 -- -- 42
2019-07-24 10:00:00 30.5 5 Nordeste 12 Este 0 -- -- 46
2019-07-24 09:00:00 26.7 6 Nordeste 10 Norte 0 -- -- 73
2019-07-24 08:00:00 23.5 4 Norte 8 Norte 0 -- -- 85
2019-07-24 07:00:00 21.4 0 Calma 5 Noroeste 0 -- -- 90
2019-07-24 06:00:00 22.1 4 Noroeste 12 Nordeste 0 -- -- 88
2019-07-24 05:00:00 21.3 3 Norte 5 Noroeste 0 -- -- 86
2019-07-24 04:00:00 22.4 2 Este 12 Este 0 -- -- 87
2019-07-24 03:00:00 23.4 7 Nordeste 11 Nordeste 0 -- -- 88
2019-07-24 02:00:00 23.3 0 Calma 9 Este 0 -- -- 81
2019-07-24 01:00:00 24.1 6 Nordeste 9 Este 0 -- -- 85
2019-07-24 00:00:00 25.6 3 Norte 6 Nordeste 0 -- -- 85
2019-07-23 23:00:00 26.3 3 Nordeste 13 Este 0 -- -- 83
2019-07-23 22:00:00 26.9 9 Este 18 Este 0 -- -- 78
2019-07-23 21:00:00 28 13 Este 20 Sudeste 0 -- -- 69
2019-07-23 20:00:00 30.1 17 Sudeste 24 Este 0 -- -- 54
2019-07-23 19:00:00 31.5 18 Sudeste 26 Este 0 -- -- 51
2019-07-23 18:00:00 32.5 20 Sudeste 31 Sudeste 0 -- -- 45
2019-07-23 17:00:00 33.5 22 Sudeste 30 Sudeste 0 -- -- 40
2019-07-23 16:00:00 34.1 21 Sudeste 28 Sudeste 0 -- -- 33
2019-07-23 15:00:00 34.7 21 Sudeste 33 Sudeste 0 -- -- 27
2019-07-23 14:00:00 34.3 19 Sudeste 26 Sudeste 0 -- -- 30
2019-07-23 13:00:00 34.4 14 Sudeste 27 Este 0 -- -- 31
2019-07-23 12:00:00 33.3 13 Sudeste 21 Sudeste 0 -- -- 38
2019-07-23 11:00:00 32.1 10 Este 20 Sudeste 0 -- -- 45
2019-07-23 10:00:00 29.5 12 Este 20 Este 0 -- -- 57
2019-07-23 09:00:00 26.9 5 Nordeste 9 Nordeste 0 -- -- 74
2019-07-23 08:00:00 23.2 0 Calma 7 Noroeste 0 -- -- 85
2019-07-23 07:00:00 21.6 3 Norte 12 Nordeste 0 -- -- 88
2019-07-23 06:00:00 22.7 10 Nordeste 16 Nordeste 0 -- -- 88
2019-07-23 05:00:00 21.6 3 Norte 5 Norte 0 -- -- 86
2019-07-23 04:00:00 21.6 5 Norte 6 Norte 0 -- -- 81
2019-07-23 03:00:00 22 0 Calma 7 Nordeste 0 -- -- 82
2019-07-23 02:00:00 22.1 3 Sudeste 7 Este 0 -- -- 76
2019-07-23 01:00:00 22.9 3 Este 5 Este 0 -- -- 75
2019-07-23 00:00:00 25.3 4 Nordeste 6 Nordeste 0 -- -- 72
2019-07-22 23:00:00 26.3 5 Nordeste 17 Este 0 -- -- 71
2019-07-22 22:00:00 27.1 9 Este 26 Sudeste 0 -- -- 66
2019-07-22 21:00:00 28.4 15 Sudeste 23 Este 0 -- -- 58
2019-07-22 20:00:00 30.9 15 Sudeste 22 Sudeste 0 -- -- 45
2019-07-22 19:00:00 31.9 18 Sudeste 27 Sudeste 0 -- -- 42
2019-07-22 18:00:00 32.7 19 Sudeste 31 Sudeste 0 -- -- 41
2019-07-22 17:00:00 33.3 20 Sudeste 30 Sudeste 0 -- -- 38
2019-07-22 16:00:00 33.7 19 Sudeste 33 Sudeste 0 -- -- 38
2019-07-22 15:00:00 33.8 24 Sudeste 36 Sudeste 0 -- -- 36
2019-07-22 14:00:00 33.5 23 Este 36 Este 0 -- -- 36
2019-07-22 13:00:00 33.3 22 Este 33 Sudeste 0 -- -- 38
2019-07-22 12:00:00 32.6 22 Este 33 Este 0 -- -- 37
2019-07-22 11:00:00 31.5 21 Este 28 Este 0 -- -- 43
2019-07-22 10:00:00 30.3 17 Este 28 Este 0 -- -- 48
2019-07-22 09:00:00 27.4 9 Nordeste 17 Este 0 -- -- 63
2019-07-22 08:00:00 23.8 8 Nordeste 18 Nordeste 0 -- -- 76
2019-07-22 07:00:00 22.1 9 Nordeste 16 Nordeste 0 -- -- 80
2019-07-22 06:00:00 21.5 5 Norte 11 Nordeste 0 -- -- 79
2019-07-22 05:00:00 21.6 6 Nordeste 9 Nordeste 0 -- -- 77
2019-07-22 04:00:00 22.5 5 Nordeste 12 Nordeste 0 -- -- 75
2019-07-22 03:00:00 23 8 Nordeste 15 Norte 0 -- -- 76
2019-07-22 02:00:00 23.3 10 Nordeste 14 Nordeste 0 -- -- 75
2019-07-22 01:00:00 23.9 6 Norte 10 Norte 0 -- -- 71
2019-07-22 00:00:00 25 8 Nordeste 12 Nordeste 0 -- -- 68
2019-07-21 23:00:00 25.8 4 Nordeste 10 Nordeste 0 -- -- 62
2019-07-21 22:00:00 26.9 5 Nordeste 18 Este 0 -- -- 59
2019-07-21 21:00:00 28.1 12 Este 23 Este 0 -- -- 58
2019-07-21 20:00:00 29.9 17 Este 30 Este 0 -- -- 51
2019-07-21 19:00:00 31.2 17 Este 31 Sudeste 0 -- -- 44
2019-07-21 18:00:00 31.5 22 Este 36 Este 0 -- -- 43
2019-07-21 17:00:00 31.7 22 Este 36 Este 0 -- -- 48
2019-07-21 16:00:00 31.9 26 Este 41 Sudeste 0 -- -- 45
2019-07-21 15:00:00 31.9 22 Este 41 Este 0 -- -- 48
2019-07-21 14:00:00 32 21 Este 35 Sudeste 0 -- -- 49
2019-07-21 13:00:00 31.8 22 Este 35 Este 0 -- -- 46
2019-07-21 12:00:00 31 22 Sudeste 31 Sudeste 0 -- -- 50
2019-07-21 11:00:00 29.8 18 Este 32 Este 0 -- -- 59
2019-07-21 10:00:00 29 20 Este 33 Este 0 -- -- 62
2019-07-21 09:00:00 27.1 19 Nordeste 34 Nordeste 0 -- -- 75
2019-07-21 08:00:00 24 7 Nordeste 14 Nordeste 0 -- -- 86
2019-07-21 07:00:00 22.2 10 Nordeste 16 Nordeste 0 -- -- 88
2019-07-21 06:00:00 22.1 8 Nordeste 14 Nordeste 0 -- -- 89
2019-07-21 05:00:00 22.5 10 Nordeste 15 Nordeste 0 -- -- 89
2019-07-21 04:00:00 22.6 9 Nordeste 14 Nordeste 0 -- -- 87
2019-07-21 03:00:00 22.7 0 Calma 7 Nordeste 0 -- -- 82
2019-07-21 02:00:00 23.7 5 Nordeste 12 Nordeste 0 -- -- 82
2019-07-21 01:00:00 24.2 7 Nordeste 12 Nordeste 0 -- -- 79
2019-07-21 00:00:00 24.4 5 Nordeste 9 Norte 0 -- -- 71